Flight Track Log - Related Links

Times and Time Zones

All times are in EDT time to prevent confusion due to time zone crossing. See the WBR2634 flight status page for this flight to view local times or setup timezone preferences in your user account.

Time Position Orientation Groundspeed Altitude Reporting Facility
EDT Latitude Longitude Course Direction KTS MPH feet Rate Location/Type
Thu 05:55:02 PM 40.8292 -91.1219 73° East 139 160 2,800  Level Chicago Center
Thu 05:56:04 PM 40.8442 -91.0789 65° Northeast 129 148 3,800 871 Climbing Chicago Center
Thu 05:57:00 PM 40.8729 -90.7252 72° East  Level FlightAware Approximate
Thu 05:57:06 PM 40.8597 -91.0361 64° Northeast 129 148 4,600  Level Chicago Center
Thu 05:58:00 PM 40.8868 -90.6684 73° East  Level FlightAware Approximate
Thu 05:58:08 PM 40.8800 -90.9836 63° Northeast 133 153 5,600  Level Chicago Center
Thu 05:59:00 PM 40.9001 -90.6112 73° East  Level FlightAware Approximate
Thu 05:59:10 PM 40.8942 -90.9364 68° East 137 158 6,400  Level Chicago Center
Thu 06:00:00 PM 40.9134 -90.5541 73° East  Level FlightAware Approximate
Thu 06:00:12 PM 40.9078 -90.8875 70° East 140 161 7,400  Level Chicago Center
Thu 06:01:15 PM 40.9217 -90.8397 69° East 140 161 8,200 667 Climbing Chicago Center
Thu 06:02:18 PM 40.9392 -90.7925 64° Northeast 142 163 8,800 387 Climbing Chicago Center
Thu 06:03:19 PM 40.9589 -90.7411 63° Northeast 155 178 9,000 98 Climbing Chicago Center
Thu 06:04:21 PM 40.9814 -90.6711 67° East 171 197 9,000 48 Level Chicago Center
Thu 06:05:23 PM 40.9978 -90.6142 69° East 168 193 9,100 48 Climbing Chicago Center
Thu 06:06:25 PM 41.0142 -90.5578 69° East 165 190 9,100 -48 Level Chicago Center
Thu 06:07:28 PM 41.0325 -90.4994 67° East 169 194 9,000  Descending Chicago Center
Thu 06:08:30 PM 41.0517 -90.4439 65° Northeast 167 192 9,100  Climbing Chicago Center
Thu 06:09:32 PM 41.0700 -90.3864 67° East 170 196 9,000  Descending Chicago Center
Thu 06:10:34 PM 41.0894 -90.3292 66° East 170 196 9,100  Climbing Chicago Center
Thu 06:11:36 PM 41.1114 -90.2581 68° East 172 198 9,000  Descending Chicago Center
Thu 06:12:38 PM 41.1306 -90.2000 66° East 172 198 9,100  Climbing Chicago Center
Thu 06:13:40 PM 41.1494 -90.1411 67° East 172 198 9,000 -48 Descending Chicago Center
Thu 06:14:42 PM 41.1675 -90.0819 68° East 172 198 9,000  Level Chicago Center
Thu 06:15:44 PM 41.1828 -90.0233 71° East 170 196 9,000  Level Chicago Center
Thu 06:16:46 PM 41.1983 -89.9636 71° East 170 196 9,000 48 Level Chicago Center
Thu 06:17:48 PM 41.2208 -89.8967 66° East 166 191 9,100 48 Climbing Chicago Center
Thu 06:18:51 PM 41.2386 -89.8383 68° East 168 193 9,100  Level Chicago Center
Thu 06:19:53 PM 41.2564 -89.7811 68° East 168 193 9,100  Level Chicago Center
Thu 06:20:55 PM 41.2733 -89.7203 70° East 172 198 9,100  Level Chicago Center
Thu 06:21:57 PM 41.2900 -89.6586 70° East 174 200 9,100  Level Chicago Center
Thu 06:22:59 PM 41.3064 -89.5992 70° East 174 200 9,100 -48 Level Chicago Center
Thu 06:24:01 PM 41.3258 -89.5406 66° East 174 200 9,000  Descending Chicago Center
Thu 06:25:03 PM 41.3478 -89.4692 68° East 174 200 9,100 48 Climbing Chicago Center
Thu 06:26:05 PM 41.3653 -89.4089 69° East 174 200 9,100 -48 Level Chicago Center
Thu 06:27:07 PM 41.3836 -89.3494 68° East 174 200 9,000 -48 Descending Chicago Center
Thu 06:28:09 PM 41.4008 -89.2903 69° East 172 198 9,000 48 Level Chicago Center
Thu 06:29:11 PM 41.4178 -89.2319 69° East 169 194 9,100 48 Climbing Chicago Center
Thu 06:30:13 PM 41.4372 -89.1647 69° East 168 193 9,100  Level Chicago Center
Thu 06:31:15 PM 41.4556 -89.1064 67° East 169 194 9,100 -48 Level Chicago Center
Thu 06:32:18 PM 41.4772 -89.0508 62° Northeast 170 196 9,000  Descending Chicago Center
Thu 06:33:20 PM 41.4956 -88.9950 66° East 166 191 9,100 -97 Climbing Chicago Center
Thu 06:34:22 PM 41.5150 -88.9389 65° Northeast 167 192 8,800 -387 Descending Chicago Center
Thu 06:35:24 PM 41.5389 -88.8689 65° Northeast 173 199 8,300 -387 Descending Chicago Center
Thu 06:36:26 PM 41.5589 -88.8117 65° Northeast 171 197 8,000 -97 Descending Chicago Center
Thu 06:37:28 PM 41.5761 -88.7522 69° East 171 197 8,100  Climbing Chicago Center
Thu 06:38:30 PM 41.5939 -88.6969 67° East 166 191 8,000 -48 Descending Chicago Center
Thu 06:39:32 PM 41.6133 -88.6394 66° East 168 193 8,000  Level Chicago Center
Thu 06:41:35 PM 41.6333 -88.5167 78° East 169 194 8,000  Level Chicago TRACON
Thu 06:42:35 PM 41.6500 -88.4500 71° East 166 191 8,000  Level Chicago TRACON
Thu 06:43:41 PM 41.6675 -88.3903 69° East 168 193 8,000 47 Level Chicago Center
Thu 06:44:43 PM 41.6925 -88.3408 56° Northeast 166 191 8,100 -242 Climbing Chicago Center
Thu 06:45:45 PM 41.7239 -88.2997 44° Northeast 159 183 7,500 -532 Descending Chicago Center
Thu 06:46:47 PM 41.7608 -88.2422 49° Northeast 167 192 7,000 -242 Descending Chicago Center
Thu 06:47:49 PM 41.7892 -88.1964 50° Northeast 161 185 7,000  Level Chicago Center
Thu 06:48:51 PM 41.8197 -88.1553 45° Northeast 158 182 7,000  Level Chicago Center
Thu 06:49:53 PM 41.8444 -88.1069 56° Northeast 158 182 7,000 48 Level Chicago Center
Thu 06:50:55 PM 41.8600 -88.0489 70° East 164 189 7,100  Climbing Chicago Center
Thu 06:51:57 PM 41.8633 -87.9872 86° East 165 190 7,000 -48 Descending Chicago Center
Thu 06:52:59 PM 41.8633 -87.9125 90° East 167 192 7,000  Level Chicago Center
Thu 06:54:01 PM 41.8664 -87.8500 86° East 168 193 7,000 -62 Level Chicago Center
Thu 06:54:36 PM 41.8667 -87.8167 89° East 165 190 6,900 -505 Descending Chicago TRACON
Thu 06:55:36 PM 41.8833 -87.7500 71° East 171 197 6,200 -700 Descending Chicago TRACON
Thu 06:56:36 PM 41.8833 -87.6833 90° East 162 186 5,500 -645 Descending Chicago TRACON
Thu 06:57:37 PM 41.9167 -87.6500 37° Northeast 158 182 4,900 -645 Descending Chicago TRACON
Thu 06:58:37 PM 41.9500 -87.6667 340° North 140 161 4,200 -750 Descending Chicago TRACON
Thu 06:59:37 PM 41.9667 -87.7167 294° West 138 159 3,400 -800 Descending Chicago TRACON
Thu 07:00:37 PM 41.9667 -87.7667 270° West 150 173 2,600 -800 Descending Chicago TRACON
Thu 07:01:37 PM 41.9667 -87.8167 270° West 145 167 1,800 -800 Descending Chicago TRACON
Thu 07:02:37 PM 41.9667 -87.8667 270° West 125 144 1,000 -800 Descending Chicago TRACON
Thu 07:04:00 PM 41.9667 -87.9000 289° West  Level FlightAware Approximate

Login

Don't have an account? Register now (free) for customized features, flight alerts, and more!